sensor_id;sensor_type;location;lat;lon;timestamp;P1;durP1;ratioP1;P2;durP2;ratioP2
20984;SDS011;10651;47.552;7.606;2023-04-06T08:00:37;19.92;;;13.50;;
20984;SDS011;10651;47.552;7.606;2023-04-06T08:03:08;19.98;;;13.73;;
20984;SDS011;10651;47.552;7.606;2023-04-06T10:16:22;13.57;;;8.85;;
20984;SDS011;10651;47.552;7.606;2023-04-06T18:55:28;10.95;;;5.15;;
20984;SDS011;10651;47.552;7.606;2023-04-06T18:57:57;6.20;;;3.88;;
20984;SDS011;10651;47.552;7.606;2023-04-06T19:00:23;5.57;;;3.70;;
20984;SDS011;10651;47.552;7.606;2023-04-06T19:06:22;6.30;;;3.25;;
20984;SDS011;10651;47.552;7.606;2023-04-06T19:08:53;3.53;;;2.92;;
20984;SDS011;10651;47.552;7.606;2023-04-06T19:11:46;6.95;;;3.63;;
20984;SDS011;10651;47.552;7.606;2023-04-06T19:14:17;5.60;;;3.85;;
20984;SDS011;10651;47.552;7.606;2023-04-06T19:16:48;7.05;;;3.97;;
20984;SDS011;10651;47.552;7.606;2023-04-06T19:19:19;4.85;;;2.92;;
20984;SDS011;10651;47.552;7.606;2023-04-06T19:22:11;6.15;;;3.03;;
20984;SDS011;10651;47.552;7.606;2023-04-06T19:24:40;3.60;;;2.72;;
20984;SDS011;10651;47.552;7.606;2023-04-06T19:27:07;5.32;;;3.25;;
20984;SDS011;10651;47.552;7.606;2023-04-06T19:29:34;3.35;;;2.65;;
20984;SDS011;10651;47.552;7.606;2023-04-06T19:32:26;4.82;;;2.70;;
20984;SDS011;10651;47.552;7.606;2023-04-06T19:34:54;4.32;;;2.85;;
20984;SDS011;10651;47.552;7.606;2023-04-06T19:37:20;3.83;;;2.90;;
20984;SDS011;10651;47.552;7.606;2023-04-06T19:39:49;3.75;;;2.70;;
20984;SDS011;10651;47.552;7.606;2023-04-06T19:42:31;3.60;;;2.70;;
20984;SDS011;10651;47.552;7.606;2023-04-06T19:48:11;6.38;;;4.22;;
20984;SDS011;10651;47.552;7.606;2023-04-06T19:50:54;4.68;;;3.30;;
20984;SDS011;10651;47.552;7.606;2023-04-06T19:53:21;5.82;;;3.15;;
20984;SDS011;10651;47.552;7.606;2023-04-06T20:42:42;5.63;;;2.88;;
20984;SDS011;10651;47.552;7.606;2023-04-06T20:45:08;5.80;;;2.95;;
20984;SDS011;10651;47.552;7.606;2023-04-06T20:54:37;3.47;;;3.03;;
20984;SDS011;10651;47.552;7.606;2023-04-06T20:57:09;6.15;;;3.13;;
20984;SDS011;10651;47.552;7.606;2023-04-06T21:02:30;3.90;;;3.03;;
20984;SDS011;10651;47.552;7.606;2023-04-06T21:07:32;7.75;;;3.17;;
20984;SDS011;10651;47.552;7.606;2023-04-06T21:10:07;4.38;;;3.05;;
20984;SDS011;10651;47.552;7.606;2023-04-06T21:12:35;4.53;;;2.70;;
20984;SDS011;10651;47.552;7.606;2023-04-06T21:15:01;3.42;;;2.90;;
20984;SDS011;10651;47.552;7.606;2023-04-06T21:17:27;3.55;;;3.10;;
20984;SDS011;10651;47.552;7.606;2023-04-06T21:19:53;3.20;;;2.90;;
20984;SDS011;10651;47.552;7.606;2023-04-06T21:22:22;3.38;;;2.63;;
20984;SDS011;10651;47.552;7.606;2023-04-06T21:24:47;6.13;;;2.95;;
20984;SDS011;10651;47.552;7.606;2023-04-06T21:27:13;4.50;;;2.70;;
20984;SDS011;10651;47.552;7.606;2023-04-06T21:29:41;3.65;;;3.13;;
20984;SDS011;10651;47.552;7.606;2023-04-06T21:32:07;4.57;;;3.08;;
20984;SDS011;10651;47.552;7.606;2023-04-06T21:34:33;4.70;;;3.08;;
20984;SDS011;10651;47.552;7.606;2023-04-06T21:36:58;5.20;;;3.08;;
20984;SDS011;10651;47.552;7.606;2023-04-06T21:39:58;4.88;;;3.20;;
20984;SDS011;10651;47.552;7.606;2023-04-06T21:42:16;6.57;;;4.63;;
20984;SDS011;10651;47.552;7.606;2023-04-06T21:44:45;5.05;;;3.38;;
20984;SDS011;10651;47.552;7.606;2023-04-06T21:47:11;6.25;;;3.65;;
20984;SDS011;10651;47.552;7.606;2023-04-06T21:49:36;6.90;;;2.85;;
20984;SDS011;10651;47.552;7.606;2023-04-06T21:52:02;6.47;;;3.08;;
20984;SDS011;10651;47.552;7.606;2023-04-06T21:54:48;4.00;;;2.92;;
